sensor_id;sensor_type;location;lat;lon;timestamp;temperature;humidity
19536;HTU21D;9913;51.168;4.124;2024-03-29T00:00:13;9.74;27.01
19536;HTU21D;9913;51.168;4.124;2024-03-29T00:02:42;9.59;26.65
19536;HTU21D;9913;51.168;4.124;2024-03-29T00:05:09;9.61;26.64
19536;HTU21D;9913;51.168;4.124;2024-03-29T00:07:36;9.60;27.07
19536;HTU21D;9913;51.168;4.124;2024-03-29T00:10:03;9.67;26.56
19536;HTU21D;9913;51.168;4.124;2024-03-29T00:12:30;9.69;26.78
19536;HTU21D;9913;51.168;4.124;2024-03-29T00:14:57;9.79;27.23
19536;HTU21D;9913;51.168;4.124;2024-03-29T00:17:24;9.70;26.17
19536;HTU21D;9913;51.168;4.124;2024-03-29T00:19:53;9.74;26.39
19536;HTU21D;9913;51.168;4.124;2024-03-29T00:22:19;9.70;26.42
19536;HTU21D;9913;51.168;4.124;2024-03-29T00:24:46;9.65;26.71
19536;HTU21D;9913;51.168;4.124;2024-03-29T00:27:13;9.80;26.91
19536;HTU21D;9913;51.168;4.124;2024-03-29T00:29:41;9.78;26.55
19536;HTU21D;9913;51.168;4.124;2024-03-29T00:32:08;9.80;26.64
19536;HTU21D;9913;51.168;4.124;2024-03-29T00:34:35;9.86;26.26
19536;HTU21D;9913;51.168;4.124;2024-03-29T00:37:03;9.75;26.46
19536;HTU21D;9913;51.168;4.124;2024-03-29T00:39:30;9.71;26.17
19536;HTU21D;9913;51.168;4.124;2024-03-29T00:41:57;9.67;26.17
19536;HTU21D;9913;51.168;4.124;2024-03-29T00:44:24;9.63;26.19
19536;HTU21D;9913;51.168;4.124;2024-03-29T00:46:51;9.64;26.81
19536;HTU21D;9913;51.168;4.124;2024-03-29T00:49:17;9.63;26.09
19536;HTU21D;9913;51.168;4.124;2024-03-29T00:51:44;9.57;25.71
19536;HTU21D;9913;51.168;4.124;2024-03-29T00:54:13;9.56;26.70
19536;HTU21D;9913;51.168;4.124;2024-03-29T00:56:40;9.59;26.92
19536;HTU21D;9913;51.168;4.124;2024-03-29T00:59:07;9.55;25.33
19536;HTU21D;9913;51.168;4.124;2024-03-29T01:01:34;9.60;26.56
19536;HTU21D;9913;51.168;4.124;2024-03-29T01:04:01;9.66;26.55
19536;HTU21D;9913;51.168;4.124;2024-03-29T01:06:28;9.67;26.33
19536;HTU21D;9913;51.168;4.124;2024-03-29T01:08:55;9.60;26.57
19536;HTU21D;9913;51.168;4.124;2024-03-29T01:11:23;9.62;26.21
19536;HTU21D;9913;51.168;4.124;2024-03-29T01:13:50;9.59;26.01
19536;HTU21D;9913;51.168;4.124;2024-03-29T01:16:17;9.59;26.18
19536;HTU21D;9913;51.168;4.124;2024-03-29T01:18:43;9.59;26.01
19536;HTU21D;9913;51.168;4.124;2024-03-29T01:21:11;9.57;26.32
19536;HTU21D;9913;51.168;4.124;2024-03-29T01:23:38;9.62;25.98
19536;HTU21D;9913;51.168;4.124;2024-03-29T01:26:06;9.61;26.58
19536;HTU21D;9913;51.168;4.124;2024-03-29T01:28:35;9.65;26.36
19536;HTU21D;9913;51.168;4.124;2024-03-29T01:31:02;9.59;26.76
19536;HTU21D;9913;51.168;4.124;2024-03-29T01:33:29;9.68;26.84
19536;HTU21D;9913;51.168;4.124;2024-03-29T01:35:56;9.71;26.42
19536;HTU21D;9913;51.168;4.124;2024-03-29T01:38:23;9.74;26.42
19536;HTU21D;9913;51.168;4.124;2024-03-29T01:40:50;9.88;26.17
19536;HTU21D;9913;51.168;4.124;2024-03-29T01:43:17;9.83;25.98
19536;HTU21D;9913;51.168;4.124;2024-03-29T01:45:48;9.74;26.39
19536;HTU21D;9913;51.168;4.124;2024-03-29T01:48:17;9.79;25.89
19536;HTU21D;9913;51.168;4.124;2024-03-29T01:50:47;9.77;26.07
19536;HTU21D;9913;51.168;4.124;2024-03-29T01:53:16;9.77;25.77
19536;HTU21D;9913;51.168;4.124;2024-03-29T01:55:45;9.82;25.87
19536;HTU21D;9913;51.168;4.124;2024-03-29T01:58:14;9.85;26.01
19536;HTU21D;9913;51.168;4.124;2024-03-29T02:00:50;9.81;26.02
19536;HTU21D;9913;51.168;4.124;2024-03-29T02:03:19;9.82;26.08
19536;HTU21D;9913;51.168;4.124;2024-03-29T02:05:47;9.81;26.47
19536;HTU21D;9913;51.168;4.124;2024-03-29T02:08:16;9.83;26.10
19536;HTU21D;9913;51.168;4.124;2024-03-29T02:10:46;9.82;25.23
19536;HTU21D;9913;51.168;4.124;2024-03-29T02:13:15;9.80;26.66
19536;HTU21D;9913;51.168;4.124;2024-03-29T02:15:42;9.79;26.62
19536;HTU21D;9913;51.168;4.124;2024-03-29T02:18:11;9.74;25.27
19536;HTU21D;9913;51.168;4.124;2024-03-29T02:20:40;9.74;25.36
19536;HTU21D;9913;51.168;4.124;2024-03-29T02:23:11;9.75;26.29
19536;HTU21D;9913;51.168;4.124;2024-03-29T02:25:40;9.71;25.95
19536;HTU21D;9913;51.168;4.124;2024-03-29T02:28:08;9.70;26.62
19536;HTU21D;9913;51.168;4.124;2024-03-29T02:30:36;9.68;26.78
19536;HTU21D;9913;51.168;4.124;2024-03-29T02:33:04;9.67;26.15
19536;HTU21D;9913;51.168;4.124;2024-03-29T02:35:32;9.67;26.35
19536;HTU21D;9913;51.168;4.124;2024-03-29T02:38:00;9.67;26.07
19536;HTU21D;9913;51.168;4.124;2024-03-29T02:40:28;9.64;26.15
19536;HTU21D;9913;51.168;4.124;2024-03-29T02:42:57;9.61;25.68
19536;HTU21D;9913;51.168;4.124;2024-03-29T02:45:25;9.53;25.13
19536;HTU21D;9913;51.168;4.124;2024-03-29T02:47:53;9.53;24.60
19536;HTU21D;9913;51.168;4.124;2024-03-29T02:50:22;9.46;24.54
19536;HTU21D;9913;51.168;4.124;2024-03-29T02:52:49;9.44;23.66
19536;HTU21D;9913;51.168;4.124;2024-03-29T02:55:17;9.40;24.86
19536;HTU21D;9913;51.168;4.124;2024-03-29T02:57:43;9.27;18.57
19536;HTU21D;9913;51.168;4.124;2024-03-29T03:00:14;9.11;14.77
19536;HTU21D;9913;51.168;4.124;2024-03-29T03:02:41;8.91;6.44
19536;HTU21D;9913;51.168;4.124;2024-03-29T03:05:09;8.76;3.83
19536;HTU21D;9913;51.168;4.124;2024-03-29T03:07:36;8.65;0.42
19536;HTU21D;9913;51.168;4.124;2024-03-29T03:10:21;8.51;-0.40
19536;HTU21D;9913;51.168;4.124;2024-03-29T03:13:07;8.39;-2.23
19536;HTU21D;9913;51.168;4.124;2024-03-29T03:15:36;8.38;-4.90
19536;HTU21D;9913;51.168;4.124;2024-03-29T03:18:03;8.18;118.61
19536;HTU21D;9913;51.168;4.124;2024-03-29T03:20:31;8.27;-2.41
19536;HTU21D;9913;51.168;4.124;2024-03-29T03:22:59;8.21;-3.65
19536;HTU21D;9913;51.168;4.124;2024-03-29T03:25:27;8.14;118.60
19536;HTU21D;9913;51.168;4.124;2024-03-29T03:27:54;8.15;118.30
19536;HTU21D;9913;51.168;4.124;2024-03-29T03:30:22;8.15;117.18
19536;HTU21D;9913;51.168;4.124;2024-03-29T03:32:50;8.19;117.53
19536;HTU21D;9913;51.168;4.124;2024-03-29T03:35:18;8.17;-5.52
19536;HTU21D;9913;51.168;4.124;2024-03-29T03:37:46;8.19;117.92
19536;HTU21D;9913;51.168;4.124;2024-03-29T03:40:14;8.20;116.54
19536;HTU21D;9913;51.168;4.124;2024-03-29T03:42:41;8.19;118.38
19536;HTU21D;9913;51.168;4.124;2024-03-29T03:45:09;8.20;-4.95
19536;HTU21D;9913;51.168;4.124;2024-03-29T03:47:35;8.19;118.26
19536;HTU21D;9913;51.168;4.124;2024-03-29T03:50:05;8.16;117.28
19536;HTU21D;9913;51.168;4.124;2024-03-29T03:52:32;8.14;114.09
19536;HTU21D;9913;51.168;4.124;2024-03-29T03:55:00;8.14;111.88
19536;HTU21D;9913;51.168;4.124;2024-03-29T03:57:26;8.12;105.28
19536;HTU21D;9913;51.168;4.124;2024-03-29T03:59:56;8.02;97.90
19536;HTU21D;9913;51.168;4.124;2024-03-29T04:02:23;7.98;94.01
19536;HTU21D;9913;51.168;4.124;2024-03-29T04:04:52;8.03;91.18
19536;HTU21D;9913;51.168;4.124;2024-03-29T04:07:21;7.86;88.92
19536;HTU21D;9913;51.168;4.124;2024-03-29T04:09:51;7.71;86.60
19536;HTU21D;9913;51.168;4.124;2024-03-29T04:12:18;7.63;85.67
19536;HTU21D;9913;51.168;4.124;2024-03-29T04:14:46;7.64;84.38
19536;HTU21D;9913;51.168;4.124;2024-03-29T04:17:17;7.54;83.56
19536;HTU21D;9913;51.168;4.124;2024-03-29T04:19:44;7.52;82.97
19536;HTU21D;9913;51.168;4.124;2024-03-29T04:22:12;7.58;82.31
19536;HTU21D;9913;51.168;4.124;2024-03-29T04:24:40;7.50;82.15
19536;HTU21D;9913;51.168;4.124;2024-03-29T04:27:08;7.47;82.16
19536;HTU21D;9913;51.168;4.124;2024-03-29T04:29:35;7.48;81.87
19536;HTU21D;9913;51.168;4.124;2024-03-29T04:32:04;7.50;81.62
19536;HTU21D;9913;51.168;4.124;2024-03-29T04:34:31;7.52;81.58
19536;HTU21D;9913;51.168;4.124;2024-03-29T04:36:59;7.63;81.55
19536;HTU21D;9913;51.168;4.124;2024-03-29T04:39:27;7.48;81.54
19536;HTU21D;9913;51.168;4.124;2024-03-29T04:41:56;7.49;81.72
19536;HTU21D;9913;51.168;4.124;2024-03-29T04:44:25;7.54;81.68
19536;HTU21D;9913;51.168;4.124;2024-03-29T04:46:54;7.43;81.65
19536;HTU21D;9913;51.168;4.124;2024-03-29T04:49:23;7.49;81.68
19536;HTU21D;9913;51.168;4.124;2024-03-29T04:51:56;7.48;81.63
19536;HTU21D;9913;51.168;4.124;2024-03-29T04:54:24;7.43;81.59
19536;HTU21D;9913;51.168;4.124;2024-03-29T04:56:52;7.55;81.62
19536;HTU21D;9913;51.168;4.124;2024-03-29T04:59:22;7.48;81.71
19536;HTU21D;9913;51.168;4.124;2024-03-29T05:01:50;7.52;81.71
19536;HTU21D;9913;51.168;4.124;2024-03-29T05:04:20;7.43;81.74
19536;HTU21D;9913;51.168;4.124;2024-03-29T05:06:52;7.46;81.68
19536;HTU21D;9913;51.168;4.124;2024-03-29T05:09:21;7.47;81.89
19536;HTU21D;9913;51.168;4.124;2024-03-29T05:11:49;7.47;81.85
19536;HTU21D;9913;51.168;4.124;2024-03-29T05:14:18;7.42;81.86
19536;HTU21D;9913;51.168;4.124;2024-03-29T05:16:48;7.43;81.84
19536;HTU21D;9913;51.168;4.124;2024-03-29T05:19:16;7.45;82.03
19536;HTU21D;9913;51.168;4.124;2024-03-29T05:21:44;7.40;82.01
19536;HTU21D;9913;51.168;4.124;2024-03-29T05:24:12;7.42;82.01
19536;HTU21D;9913;51.168;4.124;2024-03-29T05:26:39;7.44;82.29
19536;HTU21D;9913;51.168;4.124;2024-03-29T05:29:08;7.43;82.12
19536;HTU21D;9913;51.168;4.124;2024-03-29T05:31:36;7.45;82.27
19536;HTU21D;9913;51.168;4.124;2024-03-29T05:34:05;7.45;82.36
19536;HTU21D;9913;51.168;4.124;2024-03-29T05:36:33;7.50;82.67
19536;HTU21D;9913;51.168;4.124;2024-03-29T05:39:02;7.42;82.64
19536;HTU21D;9913;51.168;4.124;2024-03-29T05:41:30;7.44;82.73
19536;HTU21D;9913;51.168;4.124;2024-03-29T05:43:58;7.46;83.01
19536;HTU21D;9913;51.168;4.124;2024-03-29T05:46:27;7.54;83.16
19536;HTU21D;9913;51.168;4.124;2024-03-29T05:48:55;7.50;82.91
19536;HTU21D;9913;51.168;4.124;2024-03-29T05:51:24;7.52;83.29
19536;HTU21D;9913;51.168;4.124;2024-03-29T05:53:52;7.55;83.09
19536;HTU21D;9913;51.168;4.124;2024-03-29T05:56:23;7.53;83.40
19536;HTU21D;9913;51.168;4.124;2024-03-29T05:58:51;7.39;83.17
19536;HTU21D;9913;51.168;4.124;2024-03-29T06:01:20;7.46;83.31
19536;HTU21D;9913;51.168;4.124;2024-03-29T06:03:48;7.55;83.31
19536;HTU21D;9913;51.168;4.124;2024-03-29T06:06:18;7.56;83.69
19536;HTU21D;9913;51.168;4.124;2024-03-29T06:08:51;7.58;83.67
19536;HTU21D;9913;51.168;4.124;2024-03-29T06:11:19;7.59;83.39
19536;HTU21D;9913;51.168;4.124;2024-03-29T06:13:47;7.64;83.64
19536;HTU21D;9913;51.168;4.124;2024-03-29T06:16:32;7.60;83.71
19536;HTU21D;9913;51.168;4.124;2024-03-29T06:19:18;7.73;83.97
19536;HTU21D;9913;51.168;4.124;2024-03-29T06:21:46;7.77;83.95
19536;HTU21D;9913;51.168;4.124;2024-03-29T06:24:15;7.60;83.90
19536;HTU21D;9913;51.168;4.124;2024-03-29T06:26:43;7.61;83.85
19536;HTU21D;9913;51.168;4.124;2024-03-29T06:29:11;7.63;84.40
19536;HTU21D;9913;51.168;4.124;2024-03-29T06:31:39;7.74;84.18
19536;HTU21D;9913;51.168;4.124;2024-03-29T06:34:07;7.58;84.37
19536;HTU21D;9913;51.168;4.124;2024-03-29T06:36:35;7.78;84.48
19536;HTU21D;9913;51.168;4.124;2024-03-29T06:39:04;7.91;84.78
19536;HTU21D;9913;51.168;4.124;2024-03-29T06:41:33;7.87;84.81
19536;HTU21D;9913;51.168;4.124;2024-03-29T06:44:01;8.02;84.87
19536;HTU21D;9913;51.168;4.124;2024-03-29T06:46:29;7.90;84.77
19536;HTU21D;9913;51.168;4.124;2024-03-29T06:48:58;8.11;85.94
19536;HTU21D;9913;51.168;4.124;2024-03-29T06:51:26;8.26;85.61
19536;HTU21D;9913;51.168;4.124;2024-03-29T06:53:54;8.17;85.55
19536;HTU21D;9913;51.168;4.124;2024-03-29T06:56:22;7.93;85.16
19536;HTU21D;9913;51.168;4.124;2024-03-29T06:58:52;8.01;85.16
19536;HTU21D;9913;51.168;4.124;2024-03-29T07:01:20;8.15;85.34
19536;HTU21D;9913;51.168;4.124;2024-03-29T07:03:48;8.08;85.80
19536;HTU21D;9913;51.168;4.124;2024-03-29T07:06:16;8.16;85.67
19536;HTU21D;9913;51.168;4.124;2024-03-29T07:08:44;8.08;86.16
19536;HTU21D;9913;51.168;4.124;2024-03-29T07:11:13;8.13;85.82
19536;HTU21D;9913;51.168;4.124;2024-03-29T07:13:42;8.06;85.73
19536;HTU21D;9913;51.168;4.124;2024-03-29T07:16:12;8.14;85.97
19536;HTU21D;9913;51.168;4.124;2024-03-29T07:18:40;8.03;85.99
19536;HTU21D;9913;51.168;4.124;2024-03-29T07:21:08;8.02;85.61
19536;HTU21D;9913;51.168;4.124;2024-03-29T07:23:36;7.98;85.91
19536;HTU21D;9913;51.168;4.124;2024-03-29T07:26:04;8.09;86.40
19536;HTU21D;9913;51.168;4.124;2024-03-29T07:28:33;8.20;86.50
19536;HTU21D;9913;51.168;4.124;2024-03-29T07:31:05;8.22;86.40
19536;HTU21D;9913;51.168;4.124;2024-03-29T07:33:36;8.28;85.86
19536;HTU21D;9913;51.168;4.124;2024-03-29T07:36:05;8.22;86.80
19536;HTU21D;9913;51.168;4.124;2024-03-29T07:38:36;8.31;86.45
19536;HTU21D;9913;51.168;4.124;2024-03-29T07:41:04;8.41;86.72
19536;HTU21D;9913;51.168;4.124;2024-03-29T07:43:39;8.58;87.41
19536;HTU21D;9913;51.168;4.124;2024-03-29T07:46:07;8.67;88.07
19536;HTU21D;9913;51.168;4.124;2024-03-29T07:48:37;8.85;87.22
19536;HTU21D;9913;51.168;4.124;2024-03-29T07:51:05;8.95;88.13
19536;HTU21D;9913;51.168;4.124;2024-03-29T07:53:33;9.06;87.93
19536;HTU21D;9913;51.168;4.124;2024-03-29T07:56:01;9.06;88.23
19536;HTU21D;9913;51.168;4.124;2024-03-29T07:58:29;8.78;88.38
19536;HTU21D;9913;51.168;4.124;2024-03-29T08:00:57;8.94;88.59
19536;HTU21D;9913;51.168;4.124;2024-03-29T08:03:25;9.17;88.92
19536;HTU21D;9913;51.168;4.124;2024-03-29T08:05:57;9.07;88.38
19536;HTU21D;9913;51.168;4.124;2024-03-29T08:08:26;9.02;88.61
19536;HTU21D;9913;51.168;4.124;2024-03-29T08:10:54;9.36;89.06
19536;HTU21D;9913;51.168;4.124;2024-03-29T08:13:23;9.46;89.80
19536;HTU21D;9913;51.168;4.124;2024-03-29T08:15:56;9.53;89.63
19536;HTU21D;9913;51.168;4.124;2024-03-29T08:18:26;9.56;89.48
19536;HTU21D;9913;51.168;4.124;2024-03-29T08:20:54;9.65;89.62
19536;HTU21D;9913;51.168;4.124;2024-03-29T08:23:24;9.71;90.06
19536;HTU21D;9913;51.168;4.124;2024-03-29T08:25:52;9.59;89.57
19536;HTU21D;9913;51.168;4.124;2024-03-29T08:28:22;9.74;89.50
19536;HTU21D;9913;51.168;4.124;2024-03-29T08:31:00;9.84;89.70
19536;HTU21D;9913;51.168;4.124;2024-03-29T08:33:28;9.75;90.28
19536;HTU21D;9913;51.168;4.124;2024-03-29T08:35:57;9.79;90.50
19536;HTU21D;9913;51.168;4.124;2024-03-29T08:38:26;9.67;90.62
19536;HTU21D;9913;51.168;4.124;2024-03-29T08:40:54;10.14;91.50
19536;HTU21D;9913;51.168;4.124;2024-03-29T08:43:22;10.21;91.81
19536;HTU21D;9913;51.168;4.124;2024-03-29T08:45:50;10.30;90.92
19536;HTU21D;9913;51.168;4.124;2024-03-29T08:48:17;10.60;92.54
19536;HTU21D;9913;51.168;4.124;2024-03-29T08:50:45;10.65;92.27
19536;HTU21D;9913;51.168;4.124;2024-03-29T08:53:13;10.93;92.89
19536;HTU21D;9913;51.168;4.124;2024-03-29T08:55:42;10.97;94.44
19536;HTU21D;9913;51.168;4.124;2024-03-29T08:58:10;11.03;93.46
19536;HTU21D;9913;51.168;4.124;2024-03-29T09:00:37;11.31;94.04
19536;HTU21D;9913;51.168;4.124;2024-03-29T09:03:05;11.43;94.85
19536;HTU21D;9913;51.168;4.124;2024-03-29T09:05:33;11.56;94.07
19536;HTU21D;9913;51.168;4.124;2024-03-29T09:08:01;11.57;95.49
19536;HTU21D;9913;51.168;4.124;2024-03-29T09:10:29;11.39;95.05
19536;HTU21D;9913;51.168;4.124;2024-03-29T09:12:58;11.22;94.88
19536;HTU21D;9913;51.168;4.124;2024-03-29T09:15:27;11.48;94.06
19536;HTU21D;9913;51.168;4.124;2024-03-29T09:17:55;11.57;95.81
19536;HTU21D;9913;51.168;4.124;2024-03-29T09:20:23;11.49;94.68
19536;HTU21D;9913;51.168;4.124;2024-03-29T09:22:52;11.48;95.66
19536;HTU21D;9913;51.168;4.124;2024-03-29T09:25:19;11.52;95.89
19536;HTU21D;9913;51.168;4.124;2024-03-29T09:27:47;11.45;95.66
19536;HTU21D;9913;51.168;4.124;2024-03-29T09:30:17;11.57;94.96
19536;HTU21D;9913;51.168;4.124;2024-03-29T09:32:46;11.28;96.17
19536;HTU21D;9913;51.168;4.124;2024-03-29T09:35:16;11.16;96.05
19536;HTU21D;9913;51.168;4.124;2024-03-29T09:37:45;11.55;96.04
19536;HTU21D;9913;51.168;4.124;2024-03-29T09:40:16;11.66;96.33
19536;HTU21D;9913;51.168;4.124;2024-03-29T09:42:44;11.74;97.12
19536;HTU21D;9913;51.168;4.124;2024-03-29T09:45:13;11.88;98.48
19536;HTU21D;9913;51.168;4.124;2024-03-29T09:47:44;11.91;97.81
19536;HTU21D;9913;51.168;4.124;2024-03-29T09:50:13;12.02;97.60
19536;HTU21D;9913;51.168;4.124;2024-03-29T09:52:41;12.20;98.89
19536;HTU21D;9913;51.168;4.124;2024-03-29T09:55:09;12.55;99.65
19536;HTU21D;9913;51.168;4.124;2024-03-29T09:57:37;12.49;99.82
19536;HTU21D;9913;51.168;4.124;2024-03-29T10:00:07;12.82;100.25
19536;HTU21D;9913;51.168;4.124;2024-03-29T10:02:36;12.42;99.45
19536;HTU21D;9913;51.168;4.124;2024-03-29T10:05:07;12.28;100.67
19536;HTU21D;9913;51.168;4.124;2024-03-29T10:07:36;12.25;100.02
19536;HTU21D;9913;51.168;4.124;2024-03-29T10:10:07;12.79;100.44
19536;HTU21D;9913;51.168;4.124;2024-03-29T10:12:35;13.12;101.22
19536;HTU21D;9913;51.168;4.124;2024-03-29T10:15:03;12.63;98.26
19536;HTU21D;9913;51.168;4.124;2024-03-29T10:17:35;12.45;100.03
19536;HTU21D;9913;51.168;4.124;2024-03-29T10:20:06;12.66;99.99
19536;HTU21D;9913;51.168;4.124;2024-03-29T10:22:40;12.91;100.83
19536;HTU21D;9913;51.168;4.124;2024-03-29T10:25:08;13.09;100.69
19536;HTU21D;9913;51.168;4.124;2024-03-29T10:27:36;13.03;100.83
19536;HTU21D;9913;51.168;4.124;2024-03-29T10:30:05;12.99;101.38
19536;HTU21D;9913;51.168;4.124;2024-03-29T10:32:36;12.71;100.00
19536;HTU21D;9913;51.168;4.124;2024-03-29T10:35:06;12.86;100.77
19536;HTU21D;9913;51.168;4.124;2024-03-29T10:37:36;13.48;101.10
19536;HTU21D;9913;51.168;4.124;2024-03-29T10:40:09;13.55;101.34
19536;HTU21D;9913;51.168;4.124;2024-03-29T10:42:41;13.32;100.92
19536;HTU21D;9913;51.168;4.124;2024-03-29T10:45:10;13.65;100.77
19536;HTU21D;9913;51.168;4.124;2024-03-29T10:47:38;13.51;102.56
19536;HTU21D;9913;51.168;4.124;2024-03-29T10:50:12;13.73;101.99
19536;HTU21D;9913;51.168;4.124;2024-03-29T10:52:40;14.28;102.58
19536;HTU21D;9913;51.168;4.124;2024-03-29T10:55:08;14.50;103.70
19536;HTU21D;9913;51.168;4.124;2024-03-29T10:57:40;14.08;102.26
19536;HTU21D;9913;51.168;4.124;2024-03-29T11:00:11;14.12;102.63
19536;HTU21D;9913;51.168;4.124;2024-03-29T11:02:48;14.45;102.89
19536;HTU21D;9913;51.168;4.124;2024-03-29T11:05:18;14.28;102.44
19536;HTU21D;9913;51.168;4.124;2024-03-29T11:07:48;14.48;101.38
19536;HTU21D;9913;51.168;4.124;2024-03-29T11:10:29;14.54;102.20
19536;HTU21D;9913;51.168;4.124;2024-03-29T11:13:10;14.97;103.38
19536;HTU21D;9913;51.168;4.124;2024-03-29T11:15:41;14.62;101.70
19536;HTU21D;9913;51.168;4.124;2024-03-29T11:18:12;14.51;102.18
19536;HTU21D;9913;51.168;4.124;2024-03-29T11:20:44;14.39;102.60
19536;HTU21D;9913;51.168;4.124;2024-03-29T11:23:19;14.08;101.65
19536;HTU21D;9913;51.168;4.124;2024-03-29T11:25:49;14.33;101.44
19536;HTU21D;9913;51.168;4.124;2024-03-29T11:28:23;14.75;103.67
19536;HTU21D;9913;51.168;4.124;2024-03-29T11:30:53;15.00;102.21
19536;HTU21D;9913;51.168;4.124;2024-03-29T11:33:31;14.68;101.83
19536;HTU21D;9913;51.168;4.124;2024-03-29T11:36:09;14.74;101.89
19536;HTU21D;9913;51.168;4.124;2024-03-29T11:38:38;14.50;102.17
19536;HTU21D;9913;51.168;4.124;2024-03-29T11:41:09;14.74;102.50
19536;HTU21D;9913;51.168;4.124;2024-03-29T11:43:38;14.66;101.95
19536;HTU21D;9913;51.168;4.124;2024-03-29T11:46:07;14.73;101.69
19536;HTU21D;9913;51.168;4.124;2024-03-29T11:48:35;14.79;102.37
19536;HTU21D;9913;51.168;4.124;2024-03-29T11:51:07;14.80;102.33
19536;HTU21D;9913;51.168;4.124;2024-03-29T11:53:37;15.11;103.12
19536;HTU21D;9913;51.168;4.124;2024-03-29T11:56:05;15.12;102.38
19536;HTU21D;9913;51.168;4.124;2024-03-29T11:58:34;15.31;101.85
19536;HTU21D;9913;51.168;4.124;2024-03-29T12:01:02;15.65;101.94
19536;HTU21D;9913;51.168;4.124;2024-03-29T12:03:31;15.91;100.95
19536;HTU21D;9913;51.168;4.124;2024-03-29T12:06:00;16.02;101.72
19536;HTU21D;9913;51.168;4.124;2024-03-29T12:08:31;16.28;101.74
19536;HTU21D;9913;51.168;4.124;2024-03-29T12:11:00;15.92;101.16
19536;HTU21D;9913;51.168;4.124;2024-03-29T12:13:29;16.00;101.99
19536;HTU21D;9913;51.168;4.124;2024-03-29T12:16:00;15.52;102.77
19536;HTU21D;9913;51.168;4.124;2024-03-29T12:18:28;15.51;102.56
19536;HTU21D;9913;51.168;4.124;2024-03-29T12:20:58;15.49;101.81
19536;HTU21D;9913;51.168;4.124;2024-03-29T12:23:31;15.43;100.83
19536;HTU21D;9913;51.168;4.124;2024-03-29T12:26:00;15.45;101.12
19536;HTU21D;9913;51.168;4.124;2024-03-29T12:28:28;15.46;101.67
19536;HTU21D;9913;51.168;4.124;2024-03-29T12:31:00;15.47;101.79
19536;HTU21D;9913;51.168;4.124;2024-03-29T12:33:29;15.61;100.38
19536;HTU21D;9913;51.168;4.124;2024-03-29T12:35:58;15.55;101.80
19536;HTU21D;9913;51.168;4.124;2024-03-29T12:38:26;15.82;102.05
19536;HTU21D;9913;51.168;4.124;2024-03-29T12:40:56;15.97;102.65
19536;HTU21D;9913;51.168;4.124;2024-03-29T12:43:26;15.87;101.86
19536;HTU21D;9913;51.168;4.124;2024-03-29T12:45:54;15.85;101.99
19536;HTU21D;9913;51.168;4.124;2024-03-29T12:48:22;15.41;102.96
19536;HTU21D;9913;51.168;4.124;2024-03-29T12:50:51;15.71;102.99
19536;HTU21D;9913;51.168;4.124;2024-03-29T12:53:20;15.80;103.68
19536;HTU21D;9913;51.168;4.124;2024-03-29T12:55:48;16.11;104.10
19536;HTU21D;9913;51.168;4.124;2024-03-29T12:58:18;16.78;11.04
19536;HTU21D;9913;51.168;4.124;2024-03-29T13:00:48;16.77;20.22
19536;HTU21D;9913;51.168;4.124;2024-03-29T13:03:22;16.71;22.04
19536;HTU21D;9913;51.168;4.124;2024-03-29T13:05:50;17.38;26.11
19536;HTU21D;9913;51.168;4.124;2024-03-29T13:08:19;17.22;22.17
19536;HTU21D;9913;51.168;4.124;2024-03-29T13:10:47;16.74;18.57
19536;HTU21D;9913;51.168;4.124;2024-03-29T13:13:15;16.13;16.65
19536;HTU21D;9913;51.168;4.124;2024-03-29T13:15:44;15.90;21.38
19536;HTU21D;9913;51.168;4.124;2024-03-29T13:18:13;15.74;22.84
19536;HTU21D;9913;51.168;4.124;2024-03-29T13:20:43;15.74;28.12
19536;HTU21D;9913;51.168;4.124;2024-03-29T13:23:11;15.68;24.69
19536;HTU21D;9913;51.168;4.124;2024-03-29T13:25:39;15.23;27.43
19536;HTU21D;9913;51.168;4.124;2024-03-29T13:28:07;15.37;28.08
19536;HTU21D;9913;51.168;4.124;2024-03-29T13:30:36;15.44;27.33
19536;HTU21D;9913;51.168;4.124;2024-03-29T13:33:10;15.78;27.13
19536;HTU21D;9913;51.168;4.124;2024-03-29T13:35:38;16.03;26.69
19536;HTU21D;9913;51.168;4.124;2024-03-29T13:38:06;15.81;26.78
19536;HTU21D;9913;51.168;4.124;2024-03-29T13:40:34;15.65;25.14
19536;HTU21D;9913;51.168;4.124;2024-03-29T13:43:02;15.82;21.86
19536;HTU21D;9913;51.168;4.124;2024-03-29T13:45:30;15.51;23.43
19536;HTU21D;9913;51.168;4.124;2024-03-29T13:47:58;15.61;24.27
19536;HTU21D;9913;51.168;4.124;2024-03-29T13:50:27;15.46;22.71
19536;HTU21D;9913;51.168;4.124;2024-03-29T13:52:55;15.59;23.12
19536;HTU21D;9913;51.168;4.124;2024-03-29T13:55:23;15.70;24.20
19536;HTU21D;9913;51.168;4.124;2024-03-29T13:57:53;15.77;25.80
19536;HTU21D;9913;51.168;4.124;2024-03-29T14:00:22;15.29;27.97
19536;HTU21D;9913;51.168;4.124;2024-03-29T14:02:50;15.11;30.67
19536;HTU21D;9913;51.168;4.124;2024-03-29T14:05:18;15.52;31.12
19536;HTU21D;9913;51.168;4.124;2024-03-29T14:07:48;15.71;31.73
19536;HTU21D;9913;51.168;4.124;2024-03-29T14:10:16;15.67;30.54
19536;HTU21D;9913;51.168;4.124;2024-03-29T14:12:45;15.45;31.73
19536;HTU21D;9913;51.168;4.124;2024-03-29T14:15:14;15.60;31.76
19536;HTU21D;9913;51.168;4.124;2024-03-29T14:17:42;15.69;31.77
19536;HTU21D;9913;51.168;4.124;2024-03-29T14:20:11;15.60;30.42
19536;HTU21D;9913;51.168;4.124;2024-03-29T14:22:38;15.54;30.94
19536;HTU21D;9913;51.168;4.124;2024-03-29T14:25:08;15.22;29.10
19536;HTU21D;9913;51.168;4.124;2024-03-29T14:27:37;15.22;28.18
19536;HTU21D;9913;51.168;4.124;2024-03-29T14:30:14;15.30;27.97
19536;HTU21D;9913;51.168;4.124;2024-03-29T14:32:46;15.54;27.29
19536;HTU21D;9913;51.168;4.124;2024-03-29T14:35:17;15.65;28.26
19536;HTU21D;9913;51.168;4.124;2024-03-29T14:37:45;15.87;28.61
19536;HTU21D;9913;51.168;4.124;2024-03-29T14:40:14;15.82;26.43
19536;HTU21D;9913;51.168;4.124;2024-03-29T14:42:42;15.62;27.05
19536;HTU21D;9913;51.168;4.124;2024-03-29T14:45:10;15.54;26.38
19536;HTU21D;9913;51.168;4.124;2024-03-29T14:47:39;15.53;29.03
19536;HTU21D;9913;51.168;4.124;2024-03-29T14:50:07;15.38;29.03
19536;HTU21D;9913;51.168;4.124;2024-03-29T14:52:35;15.43;28.76
19536;HTU21D;9913;51.168;4.124;2024-03-29T14:55:05;15.46;27.15
19536;HTU21D;9913;51.168;4.124;2024-03-29T14:57:38;15.17;28.45
19536;HTU21D;9913;51.168;4.124;2024-03-29T15:00:08;15.38;28.72
19536;HTU21D;9913;51.168;4.124;2024-03-29T15:02:37;15.43;26.65
19536;HTU21D;9913;51.168;4.124;2024-03-29T15:05:05;15.08;27.94
19536;HTU21D;9913;51.168;4.124;2024-03-29T15:07:33;15.46;26.59
19536;HTU21D;9913;51.168;4.124;2024-03-29T15:10:02;15.61;24.63
19536;HTU21D;9913;51.168;4.124;2024-03-29T15:12:38;15.68;25.37
19536;HTU21D;9913;51.168;4.124;2024-03-29T15:15:06;15.87;22.14
19536;HTU21D;9913;51.168;4.124;2024-03-29T15:17:34;17.24;18.90
19536;HTU21D;9913;51.168;4.124;2024-03-29T15:20:02;16.90;13.78
19536;HTU21D;9913;51.168;4.124;2024-03-29T15:22:31;17.06;15.34
19536;HTU21D;9913;51.168;4.124;2024-03-29T15:25:07;15.99;15.32
19536;HTU21D;9913;51.168;4.124;2024-03-29T15:27:37;15.65;16.80
19536;HTU21D;9913;51.168;4.124;2024-03-29T15:30:22;15.48;17.34
19536;HTU21D;9913;51.168;4.124;2024-03-29T15:32:50;15.18;18.70
19536;HTU21D;9913;51.168;4.124;2024-03-29T15:35:18;15.28;20.30
19536;HTU21D;9913;51.168;4.124;2024-03-29T15:37:46;15.23;20.05
19536;HTU21D;9913;51.168;4.124;2024-03-29T15:40:15;15.10;24.04
19536;HTU21D;9913;51.168;4.124;2024-03-29T15:42:45;15.06;23.05
19536;HTU21D;9913;51.168;4.124;2024-03-29T15:45:13;15.10;22.76